sensor_id;sensor_type;location;lat;lon;timestamp;P1;durP1;ratioP1;P2;durP2;ratioP2
28437;SDS011;15667;52.376;9.708;2023-04-24T00:00:12;1.33;;;0.70;;
28437;SDS011;15667;52.376;9.708;2023-04-24T00:02:39;2.05;;;0.77;;
28437;SDS011;15667;52.376;9.708;2023-04-24T00:05:06;2.85;;;1.02;;
28437;SDS011;15667;52.376;9.708;2023-04-24T00:07:32;0.70;;;0.70;;
28437;SDS011;15667;52.376;9.708;2023-04-24T00:10:01;0.85;;;0.63;;
28437;SDS011;15667;52.376;9.708;2023-04-24T00:12:26;1.77;;;0.80;;
28437;SDS011;15667;52.376;9.708;2023-04-24T00:14:52;1.67;;;0.80;;
28437;SDS011;15667;52.376;9.708;2023-04-24T00:17:18;0.70;;;0.70;;
28437;SDS011;15667;52.376;9.708;2023-04-24T00:19:47;1.17;;;0.70;;
28437;SDS011;15667;52.376;9.708;2023-04-24T00:22:13;0.60;;;0.60;;
28437;SDS011;15667;52.376;9.708;2023-04-24T00:24:39;1.13;;;0.80;;
28437;SDS011;15667;52.376;9.708;2023-04-24T00:27:05;0.75;;;0.70;;
28437;SDS011;15667;52.376;9.708;2023-04-24T00:29:31;1.83;;;0.80;;
28437;SDS011;15667;52.376;9.708;2023-04-24T00:31:56;0.88;;;0.77;;
28437;SDS011;15667;52.376;9.708;2023-04-24T00:34:22;1.40;;;0.75;;
28437;SDS011;15667;52.376;9.708;2023-04-24T00:36:48;1.38;;;0.57;;
28437;SDS011;15667;52.376;9.708;2023-04-24T00:39:20;2.35;;;0.60;;
28437;SDS011;15667;52.376;9.708;2023-04-24T00:41:46;3.17;;;0.90;;
28437;SDS011;15667;52.376;9.708;2023-04-24T00:44:13;1.23;;;0.88;;
28437;SDS011;15667;52.376;9.708;2023-04-24T00:46:39;1.90;;;0.80;;
28437;SDS011;15667;52.376;9.708;2023-04-24T00:49:05;0.70;;;0.70;;
28437;SDS011;15667;52.376;9.708;2023-04-24T00:51:31;1.38;;;0.93;;
28437;SDS011;15667;52.376;9.708;2023-04-24T00:53:58;1.52;;;0.80;;
28437;SDS011;15667;52.376;9.708;2023-04-24T00:56:24;1.95;;;0.80;;
28437;SDS011;15667;52.376;9.708;2023-04-24T00:58:50;3.45;;;0.90;;
28437;SDS011;15667;52.376;9.708;2023-04-24T01:01:16;0.70;;;0.70;;
28437;SDS011;15667;52.376;9.708;2023-04-24T01:03:45;2.60;;;0.70;;
28437;SDS011;15667;52.376;9.708;2023-04-24T01:06:11;1.23;;;1.10;;
28437;SDS011;15667;52.376;9.708;2023-04-24T01:08:39;2.03;;;0.68;;
28437;SDS011;15667;52.376;9.708;2023-04-24T01:11:06;1.40;;;0.80;;
28437;SDS011;15667;52.376;9.708;2023-04-24T01:13:32;1.17;;;0.90;;
28437;SDS011;15667;52.376;9.708;2023-04-24T01:15:59;0.70;;;0.70;;
28437;SDS011;15667;52.376;9.708;2023-04-24T01:18:26;1.48;;;0.93;;
28437;SDS011;15667;52.376;9.708;2023-04-24T01:20:53;1.40;;;0.70;;
28437;SDS011;15667;52.376;9.708;2023-04-24T01:23:21;1.10;;;0.95;;
28437;SDS011;15667;52.376;9.708;2023-04-24T01:25:48;1.17;;;1.08;;
28437;SDS011;15667;52.376;9.708;2023-04-24T01:28:14;2.05;;;0.80;;
28437;SDS011;15667;52.376;9.708;2023-04-24T01:30:41;1.08;;;0.90;;
28437;SDS011;15667;52.376;9.708;2023-04-24T01:33:06;0.77;;;0.70;;
28437;SDS011;15667;52.376;9.708;2023-04-24T01:35:32;1.50;;;0.80;;
28437;SDS011;15667;52.376;9.708;2023-04-24T01:37:59;0.73;;;0.65;;
28437;SDS011;15667;52.376;9.708;2023-04-24T01:40:25;1.20;;;0.80;;
28437;SDS011;15667;52.376;9.708;2023-04-24T01:42:50;1.15;;;0.80;;
28437;SDS011;15667;52.376;9.708;2023-04-24T01:45:16;2.35;;;0.90;;
28437;SDS011;15667;52.376;9.708;2023-04-24T01:47:42;1.05;;;0.82;;
28437;SDS011;15667;52.376;9.708;2023-04-24T01:50:08;2.03;;;0.80;;
28437;SDS011;15667;52.376;9.708;2023-04-24T01:52:34;1.20;;;1.00;;
28437;SDS011;15667;52.376;9.708;2023-04-24T01:55:01;1.00;;;0.75;;
28437;SDS011;15667;52.376;9.708;2023-04-24T01:57:30;1.52;;;0.90;;
28437;SDS011;15667;52.376;9.708;2023-04-24T01:59:56;0.70;;;0.70;;
28437;SDS011;15667;52.376;9.708;2023-04-24T02:02:22;1.08;;;0.93;;
28437;SDS011;15667;52.376;9.708;2023-04-24T02:04:52;0.90;;;0.82;;
28437;SDS011;15667;52.376;9.708;2023-04-24T02:07:19;0.80;;;0.80;;
28437;SDS011;15667;52.376;9.708;2023-04-24T02:09:45;0.70;;;0.70;;
28437;SDS011;15667;52.376;9.708;2023-04-24T02:12:10;0.98;;;0.80;;
28437;SDS011;15667;52.376;9.708;2023-04-24T02:14:36;0.70;;;0.70;;
28437;SDS011;15667;52.376;9.708;2023-04-24T02:17:01;0.70;;;0.70;;
28437;SDS011;15667;52.376;9.708;2023-04-24T02:19:27;0.90;;;0.65;;
28437;SDS011;15667;52.376;9.708;2023-04-24T02:21:53;1.00;;;0.80;;
28437;SDS011;15667;52.376;9.708;2023-04-24T02:24:18;0.95;;;0.85;;
28437;SDS011;15667;52.376;9.708;2023-04-24T02:26:44;1.33;;;0.90;;
28437;SDS011;15667;52.376;9.708;2023-04-24T02:29:10;2.45;;;0.68;;
28437;SDS011;15667;52.376;9.708;2023-04-24T02:31:35;0.93;;;0.77;;
28437;SDS011;15667;52.376;9.708;2023-04-24T02:34:01;1.23;;;0.80;;
28437;SDS011;15667;52.376;9.708;2023-04-24T02:36:26;0.90;;;0.90;;
28437;SDS011;15667;52.376;9.708;2023-04-24T02:39:01;1.45;;;0.70;;
28437;SDS011;15667;52.376;9.708;2023-04-24T02:41:27;1.63;;;1.05;;
28437;SDS011;15667;52.376;9.708;2023-04-24T02:43:57;2.88;;;0.80;;
28437;SDS011;15667;52.376;9.708;2023-04-24T02:46:23;0.98;;;0.98;;
28437;SDS011;15667;52.376;9.708;2023-04-24T02:48:49;1.83;;;0.90;;
28437;SDS011;15667;52.376;9.708;2023-04-24T02:51:15;0.80;;;0.80;;
28437;SDS011;15667;52.376;9.708;2023-04-24T02:53:40;2.78;;;0.90;;
28437;SDS011;15667;52.376;9.708;2023-04-24T02:56:06;0.80;;;0.80;;
28437;SDS011;15667;52.376;9.708;2023-04-24T02:58:32;4.10;;;0.70;;
28437;SDS011;15667;52.376;9.708;2023-04-24T03:00:57;1.05;;;0.70;;
28437;SDS011;15667;52.376;9.708;2023-04-24T03:03:23;1.25;;;0.70;;
28437;SDS011;15667;52.376;9.708;2023-04-24T03:05:49;1.13;;;0.90;;
28437;SDS011;15667;52.376;9.708;2023-04-24T03:08:15;0.70;;;0.70;;
28437;SDS011;15667;52.376;9.708;2023-04-24T03:10:41;1.52;;;0.82;;
28437;SDS011;15667;52.376;9.708;2023-04-24T03:13:06;1.15;;;0.60;;
28437;SDS011;15667;52.376;9.708;2023-04-24T03:15:32;0.63;;;0.63;;
28437;SDS011;15667;52.376;9.708;2023-04-24T03:17:58;0.80;;;0.80;;
28437;SDS011;15667;52.376;9.708;2023-04-24T03:20:24;1.05;;;0.70;;
28437;SDS011;15667;52.376;9.708;2023-04-24T03:22:49;0.93;;;0.82;;
28437;SDS011;15667;52.376;9.708;2023-04-24T03:25:15;1.60;;;0.82;;
28437;SDS011;15667;52.376;9.708;2023-04-24T03:27:40;1.05;;;0.80;;
28437;SDS011;15667;52.376;9.708;2023-04-24T03:30:06;1.02;;;0.70;;
28437;SDS011;15667;52.376;9.708;2023-04-24T03:32:32;1.42;;;0.77;;
28437;SDS011;15667;52.376;9.708;2023-04-24T03:34:58;1.10;;;0.70;;
28437;SDS011;15667;52.376;9.708;2023-04-24T03:37:24;0.90;;;0.70;;
28437;SDS011;15667;52.376;9.708;2023-04-24T03:39:50;1.65;;;0.98;;
28437;SDS011;15667;52.376;9.708;2023-04-24T03:42:16;1.20;;;0.70;;
28437;SDS011;15667;52.376;9.708;2023-04-24T03:44:41;0.77;;;0.77;;
28437;SDS011;15667;52.376;9.708;2023-04-24T03:47:07;0.77;;;0.77;;
28437;SDS011;15667;52.376;9.708;2023-04-24T03:49:33;4.57;;;0.65;;
28437;SDS011;15667;52.376;9.708;2023-04-24T03:51:58;1.17;;;0.88;;
28437;SDS011;15667;52.376;9.708;2023-04-24T03:54:32;1.30;;;0.93;;
28437;SDS011;15667;52.376;9.708;2023-04-24T03:57:04;0.70;;;0.70;;
28437;SDS011;15667;52.376;9.708;2023-04-24T03:59:31;2.13;;;0.90;;
28437;SDS011;15667;52.376;9.708;2023-04-24T04:02:02;1.08;;;0.80;;
28437;SDS011;15667;52.376;9.708;2023-04-24T04:09:48;2.25;;;0.70;;
28437;SDS011;15667;52.376;9.708;2023-04-24T04:12:16;0.60;;;0.60;;
28437;SDS011;15667;52.376;9.708;2023-04-24T04:14:41;0.98;;;0.98;;
28437;SDS011;15667;52.376;9.708;2023-04-24T04:17:10;1.25;;;0.80;;
28437;SDS011;15667;52.376;9.708;2023-04-24T04:19:36;0.60;;;0.60;;
28437;SDS011;15667;52.376;9.708;2023-04-24T04:22:02;0.57;;;0.57;;
28437;SDS011;15667;52.376;9.708;2023-04-24T04:24:27;1.13;;;1.02;;
28437;SDS011;15667;52.376;9.708;2023-04-24T04:26:56;1.38;;;0.80;;
28437;SDS011;15667;52.376;9.708;2023-04-24T04:29:23;1.20;;;0.93;;
28437;SDS011;15667;52.376;9.708;2023-04-24T04:31:49;1.90;;;1.00;;
28437;SDS011;15667;52.376;9.708;2023-04-24T04:34:14;0.80;;;0.80;;
28437;SDS011;15667;52.376;9.708;2023-04-24T04:36:41;1.50;;;0.80;;
28437;SDS011;15667;52.376;9.708;2023-04-24T04:39:07;2.05;;;1.00;;
28437;SDS011;15667;52.376;9.708;2023-04-24T04:41:33;0.60;;;0.60;;
28437;SDS011;15667;52.376;9.708;2023-04-24T04:44:02;1.42;;;1.00;;
28437;SDS011;15667;52.376;9.708;2023-04-24T04:46:30;0.68;;;0.68;;
28437;SDS011;15667;52.376;9.708;2023-04-24T04:48:59;2.25;;;0.90;;
28437;SDS011;15667;52.376;9.708;2023-04-24T04:51:26;1.02;;;0.95;;
28437;SDS011;15667;52.376;9.708;2023-04-24T04:53:53;2.17;;;0.90;;
28437;SDS011;15667;52.376;9.708;2023-04-24T04:56:19;3.33;;;0.90;;
28437;SDS011;15667;52.376;9.708;2023-04-24T04:58:44;2.58;;;1.00;;
28437;SDS011;15667;52.376;9.708;2023-04-24T05:01:10;2.60;;;1.02;;
28437;SDS011;15667;52.376;9.708;2023-04-24T05:03:36;2.25;;;0.95;;
28437;SDS011;15667;52.376;9.708;2023-04-24T05:06:01;2.25;;;1.33;;
28437;SDS011;15667;52.376;9.708;2023-04-24T05:08:31;3.72;;;1.20;;
28437;SDS011;15667;52.376;9.708;2023-04-24T05:10:56;5.03;;;2.17;;
28437;SDS011;15667;52.376;9.708;2023-04-24T05:13:22;4.40;;;1.10;;
28437;SDS011;15667;52.376;9.708;2023-04-24T05:15:47;1.52;;;1.00;;
28437;SDS011;15667;52.376;9.708;2023-04-24T05:18:13;2.70;;;1.10;;
28437;SDS011;15667;52.376;9.708;2023-04-24T05:20:39;2.83;;;1.10;;
28437;SDS011;15667;52.376;9.708;2023-04-24T05:23:05;1.92;;;1.13;;
28437;SDS011;15667;52.376;9.708;2023-04-24T05:25:30;2.20;;;1.00;;
28437;SDS011;15667;52.376;9.708;2023-04-24T05:28:01;1.45;;;1.10;;
28437;SDS011;15667;52.376;9.708;2023-04-24T05:30:27;1.33;;;0.95;;
28437;SDS011;15667;52.376;9.708;2023-04-24T05:32:53;1.73;;;0.80;;
28437;SDS011;15667;52.376;9.708;2023-04-24T05:35:18;1.10;;;0.80;;
28437;SDS011;15667;52.376;9.708;2023-04-24T05:37:44;1.10;;;0.98;;
28437;SDS011;15667;52.376;9.708;2023-04-24T05:40:10;2.65;;;0.90;;
28437;SDS011;15667;52.376;9.708;2023-04-24T05:42:36;0.65;;;0.63;;
28437;SDS011;15667;52.376;9.708;2023-04-24T05:45:02;1.77;;;1.15;;
28437;SDS011;15667;52.376;9.708;2023-04-24T05:47:28;2.38;;;0.95;;
28437;SDS011;15667;52.376;9.708;2023-04-24T05:49:54;1.52;;;0.88;;
28437;SDS011;15667;52.376;9.708;2023-04-24T05:52:19;2.75;;;1.20;;
28437;SDS011;15667;52.376;9.708;2023-04-24T05:54:45;2.10;;;1.13;;
28437;SDS011;15667;52.376;9.708;2023-04-24T05:57:11;1.75;;;1.10;;
28437;SDS011;15667;52.376;9.708;2023-04-24T05:59:37;1.52;;;1.20;;
28437;SDS011;15667;52.376;9.708;2023-04-24T06:02:03;2.22;;;1.05;;
28437;SDS011;15667;52.376;9.708;2023-04-24T06:04:29;1.40;;;1.17;;
28437;SDS011;15667;52.376;9.708;2023-04-24T06:06:55;1.75;;;1.00;;
28437;SDS011;15667;52.376;9.708;2023-04-24T06:09:24;3.58;;;1.40;;
28437;SDS011;15667;52.376;9.708;2023-04-24T06:11:50;2.70;;;1.13;;
28437;SDS011;15667;52.376;9.708;2023-04-24T06:14:19;3.08;;;1.33;;
28437;SDS011;15667;52.376;9.708;2023-04-24T06:16:46;1.92;;;1.20;;
28437;SDS011;15667;52.376;9.708;2023-04-24T06:19:11;1.48;;;1.30;;
28437;SDS011;15667;52.376;9.708;2023-04-24T06:21:37;1.20;;;1.10;;
28437;SDS011;15667;52.376;9.708;2023-04-24T06:24:02;1.50;;;1.10;;
28437;SDS011;15667;52.376;9.708;2023-04-24T06:26:29;1.38;;;1.27;;
28437;SDS011;15667;52.376;9.708;2023-04-24T06:28:55;1.70;;;1.05;;
28437;SDS011;15667;52.376;9.708;2023-04-24T06:31:21;1.48;;;1.30;;
28437;SDS011;15667;52.376;9.708;2023-04-24T06:33:48;1.83;;;1.50;;
28437;SDS011;15667;52.376;9.708;2023-04-24T06:36:14;2.30;;;1.63;;
28437;SDS011;15667;52.376;9.708;2023-04-24T06:38:40;4.30;;;1.60;;
28437;SDS011;15667;52.376;9.708;2023-04-24T06:41:06;3.22;;;1.40;;
28437;SDS011;15667;52.376;9.708;2023-04-24T06:43:32;1.75;;;1.50;;
28437;SDS011;15667;52.376;9.708;2023-04-24T06:45:58;1.60;;;1.48;;
28437;SDS011;15667;52.376;9.708;2023-04-24T06:48:25;3.22;;;2.00;;
28437;SDS011;15667;52.376;9.708;2023-04-24T06:50:51;2.58;;;1.63;;
28437;SDS011;15667;52.376;9.708;2023-04-24T06:53:17;3.08;;;2.05;;
28437;SDS011;15667;52.376;9.708;2023-04-24T06:55:42;3.85;;;2.60;;
28437;SDS011;15667;52.376;9.708;2023-04-24T06:58:12;5.72;;;3.28;;
28437;SDS011;15667;52.376;9.708;2023-04-24T07:00:41;4.43;;;2.85;;
28437;SDS011;15667;52.376;9.708;2023-04-24T07:03:06;4.45;;;3.38;;
28437;SDS011;15667;52.376;9.708;2023-04-24T07:05:32;4.85;;;3.03;;
28437;SDS011;15667;52.376;9.708;2023-04-24T07:08:06;4.38;;;3.17;;
28437;SDS011;15667;52.376;9.708;2023-04-24T07:10:32;6.35;;;3.35;;
28437;SDS011;15667;52.376;9.708;2023-04-24T07:12:59;4.32;;;3.20;;
28437;SDS011;15667;52.376;9.708;2023-04-24T07:15:27;5.38;;;3.50;;
28437;SDS011;15667;52.376;9.708;2023-04-24T07:17:53;6.60;;;4.03;;
28437;SDS011;15667;52.376;9.708;2023-04-24T07:20:21;5.00;;;4.00;;
28437;SDS011;15667;52.376;9.708;2023-04-24T07:22:50;4.53;;;3.80;;
28437;SDS011;15667;52.376;9.708;2023-04-24T07:25:19;8.23;;;3.83;;
28437;SDS011;15667;52.376;9.708;2023-04-24T07:27:45;7.18;;;3.92;;
28437;SDS011;15667;52.376;9.708;2023-04-24T07:30:11;7.00;;;4.00;;
28437;SDS011;15667;52.376;9.708;2023-04-24T07:32:36;6.50;;;3.83;;
28437;SDS011;15667;52.376;9.708;2023-04-24T07:35:02;5.75;;;3.72;;
28437;SDS011;15667;52.376;9.708;2023-04-24T07:37:28;5.68;;;3.35;;
28437;SDS011;15667;52.376;9.708;2023-04-24T07:39:56;8.57;;;3.70;;
28437;SDS011;15667;52.376;9.708;2023-04-24T07:42:25;6.80;;;3.65;;
28437;SDS011;15667;52.376;9.708;2023-04-24T07:44:51;6.57;;;3.97;;
28437;SDS011;15667;52.376;9.708;2023-04-24T07:47:16;6.30;;;3.95;;
28437;SDS011;15667;52.376;9.708;2023-04-24T07:49:42;8.52;;;4.63;;
28437;SDS011;15667;52.376;9.708;2023-04-24T07:52:14;12.00;;;5.35;;
28437;SDS011;15667;52.376;9.708;2023-04-24T07:54:39;9.00;;;5.38;;
28437;SDS011;15667;52.376;9.708;2023-04-24T07:57:05;8.85;;;5.15;;
28437;SDS011;15667;52.376;9.708;2023-04-24T07:59:33;11.35;;;6.32;;
28437;SDS011;15667;52.376;9.708;2023-04-24T08:01:59;11.13;;;6.35;;
28437;SDS011;15667;52.376;9.708;2023-04-24T08:04:26;9.18;;;5.88;;
28437;SDS011;15667;52.376;9.708;2023-04-24T08:06:51;12.00;;;6.10;;
28437;SDS011;15667;52.376;9.708;2023-04-24T08:09:17;10.00;;;6.32;;
28437;SDS011;15667;52.376;9.708;2023-04-24T08:11:48;10.93;;;6.88;;
28437;SDS011;15667;52.376;9.708;2023-04-24T08:14:14;13.75;;;6.60;;
28437;SDS011;15667;52.376;9.708;2023-04-24T08:16:40;11.07;;;6.57;;
28437;SDS011;15667;52.376;9.708;2023-04-24T08:19:09;8.82;;;6.13;;
28437;SDS011;15667;52.376;9.708;2023-04-24T08:21:35;9.73;;;6.03;;
28437;SDS011;15667;52.376;9.708;2023-04-24T08:24:01;10.13;;;6.55;;
28437;SDS011;15667;52.376;9.708;2023-04-24T08:26:32;10.63;;;6.28;;
28437;SDS011;15667;52.376;9.708;2023-04-24T08:29:00;9.77;;;5.47;;
28437;SDS011;15667;52.376;9.708;2023-04-24T08:31:26;9.15;;;5.90;;
28437;SDS011;15667;52.376;9.708;2023-04-24T08:36:44;11.07;;;5.80;;
28437;SDS011;15667;52.376;9.708;2023-04-24T08:39:09;8.85;;;5.50;;
28437;SDS011;15667;52.376;9.708;2023-04-24T08:41:35;7.30;;;4.90;;
28437;SDS011;15667;52.376;9.708;2023-04-24T08:44:03;9.07;;;5.63;;
28437;SDS011;15667;52.376;9.708;2023-04-24T08:46:31;9.52;;;5.55;;
28437;SDS011;15667;52.376;9.708;2023-04-24T08:48:58;7.97;;;5.07;;
28437;SDS011;15667;52.376;9.708;2023-04-24T08:51:24;7.32;;;4.88;;
28437;SDS011;15667;52.376;9.708;2023-04-24T08:53:53;9.85;;;4.65;;
28437;SDS011;15667;52.376;9.708;2023-04-24T08:56:20;5.88;;;4.07;;
28437;SDS011;15667;52.376;9.708;2023-04-24T08:58:48;8.73;;;4.28;;
28437;SDS011;15667;52.376;9.708;2023-04-24T09:01:18;5.28;;;3.55;;
28437;SDS011;15667;52.376;9.708;2023-04-24T09:03:52;5.68;;;3.45;;
28437;SDS011;15667;52.376;9.708;2023-04-24T09:06:20;4.38;;;3.05;;
28437;SDS011;15667;52.376;9.708;2023-04-24T09:08:48;4.38;;;3.13;;
28437;SDS011;15667;52.376;9.708;2023-04-24T09:11:17;5.15;;;2.95;;
28437;SDS011;15667;52.376;9.708;2023-04-24T09:13:43;7.70;;;3.30;;
28437;SDS011;15667;52.376;9.708;2023-04-24T09:16:10;6.80;;;3.20;;
28437;SDS011;15667;52.376;9.708;2023-04-24T09:18:36;4.25;;;2.72;;
28437;SDS011;15667;52.376;9.708;2023-04-24T09:21:03;4.88;;;2.92;;
28437;SDS011;15667;52.376;9.708;2023-04-24T09:23:31;4.03;;;2.85;;
28437;SDS011;15667;52.376;9.708;2023-04-24T09:25:58;4.15;;;2.80;;
28437;SDS011;15667;52.376;9.708;2023-04-24T09:28:35;3.75;;;2.80;;
28437;SDS011;15667;52.376;9.708;2023-04-24T09:31:06;4.30;;;3.10;;
28437;SDS011;15667;52.376;9.708;2023-04-24T09:33:40;4.03;;;2.92;;
28437;SDS011;15667;52.376;9.708;2023-04-24T09:36:29;4.60;;;3.05;;
28437;SDS011;15667;52.376;9.708;2023-04-24T09:38:58;4.57;;;3.28;;
28437;SDS011;15667;52.376;9.708;2023-04-24T09:41:25;4.60;;;3.33;;
28437;SDS011;15667;52.376;9.708;2023-04-24T09:43:53;4.18;;;3.10;;
28437;SDS011;15667;52.376;9.708;2023-04-24T09:46:20;6.00;;;3.50;;
28437;SDS011;15667;52.376;9.708;2023-04-24T09:51:50;5.22;;;3.58;;
28437;SDS011;15667;52.376;9.708;2023-04-24T09:54:18;5.60;;;3.10;;
28437;SDS011;15667;52.376;9.708;2023-04-24T09:56:50;4.35;;;3.42;;
28437;SDS011;15667;52.376;9.708;2023-04-24T09:59:16;4.63;;;2.97;;
28437;SDS011;15667;52.376;9.708;2023-04-24T10:01:43;3.58;;;3.03;;
28437;SDS011;15667;52.376;9.708;2023-04-24T10:04:16;4.00;;;3.10;;
28437;SDS011;15667;52.376;9.708;2023-04-24T10:06:43;5.75;;;2.90;;
28437;SDS011;15667;52.376;9.708;2023-04-24T10:09:09;3.85;;;2.80;;
28437;SDS011;15667;52.376;9.708;2023-04-24T10:11:37;5.45;;;3.08;;
28437;SDS011;15667;52.376;9.708;2023-04-24T10:14:06;4.35;;;2.95;;
28437;SDS011;15667;52.376;9.708;2023-04-24T10:16:33;5.38;;;2.90;;
28437;SDS011;15667;52.376;9.708;2023-04-24T10:19:02;5.47;;;2.90;;
28437;SDS011;15667;52.376;9.708;2023-04-24T10:21:28;4.70;;;2.65;;
28437;SDS011;15667;52.376;9.708;2023-04-24T10:23:55;4.85;;;2.80;;
28437;SDS011;15667;52.376;9.708;2023-04-24T10:26:21;4.88;;;2.95;;
28437;SDS011;15667;52.376;9.708;2023-04-24T10:28:48;5.88;;;2.95;;
28437;SDS011;15667;52.376;9.708;2023-04-24T10:31:14;2.60;;;2.40;;
28437;SDS011;15667;52.376;9.708;2023-04-24T10:33:40;3.22;;;2.60;;
28437;SDS011;15667;52.376;9.708;2023-04-24T10:36:10;3.13;;;2.20;;
28437;SDS011;15667;52.376;9.708;2023-04-24T10:38:39;3.70;;;2.30;;
28437;SDS011;15667;52.376;9.708;2023-04-24T10:41:08;3.45;;;2.58;;
28437;SDS011;15667;52.376;9.708;2023-04-24T10:43:48;3.60;;;2.13;;
28437;SDS011;15667;52.376;9.708;2023-04-24T10:46:29;2.38;;;2.10;;
28437;SDS011;15667;52.376;9.708;2023-04-24T10:48:55;6.60;;;2.55;;
28437;SDS011;15667;52.376;9.708;2023-04-24T10:51:23;3.25;;;2.03;;
28437;SDS011;15667;52.376;9.708;2023-04-24T10:53:52;3.53;;;1.80;;
28437;SDS011;15667;52.376;9.708;2023-04-24T10:56:18;3.60;;;1.90;;
28437;SDS011;15667;52.376;9.708;2023-04-24T10:58:45;3.00;;;1.73;;
28437;SDS011;15667;52.376;9.708;2023-04-24T11:03:57;1.80;;;1.70;;
28437;SDS011;15667;52.376;9.708;2023-04-24T11:06:32;2.65;;;1.95;;
28437;SDS011;15667;52.376;9.708;2023-04-24T11:09:03;3.20;;;2.10;;
28437;SDS011;15667;52.376;9.708;2023-04-24T11:11:34;5.07;;;2.20;;
28437;SDS011;15667;52.376;9.708;2023-04-24T11:14:03;3.55;;;2.22;;
28437;SDS011;15667;52.376;9.708;2023-04-24T11:16:39;4.03;;;1.63;;
28437;SDS011;15667;52.376;9.708;2023-04-24T11:22:02;3.10;;;1.85;;
28437;SDS011;15667;52.376;9.708;2023-04-24T11:32:41;2.85;;;1.45;;
28437;SDS011;15667;52.376;9.708;2023-04-24T11:37:43;3.42;;;1.52;;
28437;SDS011;15667;52.376;9.708;2023-04-24T11:40:12;2.90;;;1.60;;
28437;SDS011;15667;52.376;9.708;2023-04-24T11:42:41;2.65;;;1.60;;
28437;SDS011;15667;52.376;9.708;2023-04-24T11:45:09;1.33;;;1.20;;
28437;SDS011;15667;52.376;9.708;2023-04-24T11:47:36;1.40;;;1.30;;
28437;SDS011;15667;52.376;9.708;2023-04-24T11:50:03;1.85;;;1.60;;
28437;SDS011;15667;52.376;9.708;2023-04-24T11:52:31;1.50;;;1.40;;
28437;SDS011;15667;52.376;9.708;2023-04-24T11:54:57;3.55;;;1.50;;
28437;SDS011;15667;52.376;9.708;2023-04-24T11:57:25;1.10;;;1.10;;
28437;SDS011;15667;52.376;9.708;2023-04-24T11:59:58;1.50;;;1.30;;
28437;SDS011;15667;52.376;9.708;2023-04-24T12:02:25;1.75;;;1.30;;
28437;SDS011;15667;52.376;9.708;2023-04-24T12:04:52;2.78;;;1.40;;
28437;SDS011;15667;52.376;9.708;2023-04-24T12:07:19;1.95;;;1.30;;
28437;SDS011;15667;52.376;9.708;2023-04-24T12:09:46;1.98;;;1.20;;
28437;SDS011;15667;52.376;9.708;2023-04-24T12:12:27;4.90;;;1.10;;
28437;SDS011;15667;52.376;9.708;2023-04-24T12:28:21;1.38;;;0.80;;
28437;SDS011;15667;52.376;9.708;2023-04-24T12:30:49;0.60;;;0.60;;
28437;SDS011;15667;52.376;9.708;2023-04-24T12:33:21;1.95;;;0.80;;
28437;SDS011;15667;52.376;9.708;2023-04-24T12:35:53;0.90;;;0.75;;
28437;SDS011;15667;52.376;9.708;2023-04-24T12:38:38;2.10;;;0.70;;
28437;SDS011;15667;52.376;9.708;2023-04-24T12:41:10;0.80;;;0.80;;
28437;SDS011;15667;52.376;9.708;2023-04-24T12:43:51;2.13;;;1.35;;
28437;SDS011;15667;52.376;9.708;2023-04-24T12:46:21;0.88;;;0.88;;
28437;SDS011;15667;52.376;9.708;2023-04-24T12:48:53;0.93;;;0.90;;
28437;SDS011;15667;52.376;9.708;2023-04-24T12:51:23;2.47;;;1.35;;
28437;SDS011;15667;52.376;9.708;2023-04-24T12:53:49;0.98;;;0.98;;
28437;SDS011;15667;52.376;9.708;2023-04-24T12:56:18;2.22;;;1.10;;
28437;SDS011;15667;52.376;9.708;2023-04-24T12:58:47;1.23;;;1.13;;
28437;SDS011;15667;52.376;9.708;2023-04-24T13:01:13;1.90;;;1.00;;
28437;SDS011;15667;52.376;9.708;2023-04-24T13:03:42;1.80;;;0.80;;
28437;SDS011;15667;52.376;9.708;2023-04-24T13:06:08;1.90;;;1.17;;
28437;SDS011;15667;52.376;9.708;2023-04-24T13:08:34;1.33;;;1.23;;
28437;SDS011;15667;52.376;9.708;2023-04-24T13:11:20;1.63;;;1.53;;
28437;SDS011;15667;52.376;9.708;2023-04-24T13:13:50;1.60;;;1.50;;
28437;SDS011;15667;52.376;9.708;2023-04-24T13:16:15;1.83;;;1.13;;
28437;SDS011;15667;52.376;9.708;2023-04-24T13:18:41;2.28;;;1.33;;
28437;SDS011;15667;52.376;9.708;2023-04-24T13:21:07;1.38;;;1.27;;
28437;SDS011;15667;52.376;9.708;2023-04-24T13:23:32;1.30;;;1.20;;
28437;SDS011;15667;52.376;9.708;2023-04-24T13:25:58;1.50;;;1.40;;
28437;SDS011;15667;52.376;9.708;2023-04-24T13:28:24;1.30;;;1.20;;
28437;SDS011;15667;52.376;9.708;2023-04-24T13:30:50;1.60;;;1.50;;
28437;SDS011;15667;52.376;9.708;2023-04-24T13:33:16;1.15;;;1.15;;
28437;SDS011;15667;52.376;9.708;2023-04-24T13:35:42;1.10;;;1.10;;
28437;SDS011;15667;52.376;9.708;2023-04-24T13:38:07;1.63;;;1.45;;
28437;SDS011;15667;52.376;9.708;2023-04-24T13:40:33;1.30;;;1.20;;
28437;SDS011;15667;52.376;9.708;2023-04-24T13:42:58;0.93;;;0.93;;
28437;SDS011;15667;52.376;9.708;2023-04-24T13:45:24;1.15;;;1.05;;
28437;SDS011;15667;52.376;9.708;2023-04-24T13:47:50;1.10;;;0.98;;
28437;SDS011;15667;52.376;9.708;2023-04-24T13:50:16;1.98;;;1.00;;
28437;SDS011;15667;52.376;9.708;2023-04-24T13:52:45;2.25;;;1.00;;
28437;SDS011;15667;52.376;9.708;2023-04-24T13:55:26;1.00;;;0.63;;
28437;SDS011;15667;52.376;9.708;2023-04-24T13:57:51;0.70;;;0.70;;
28437;SDS011;15667;52.376;9.708;2023-04-24T14:00:20;0.80;;;0.70;;
28437;SDS011;15667;52.376;9.708;2023-04-24T14:02:46;0.98;;;0.63;;
28437;SDS011;15667;52.376;9.708;2023-04-24T14:05:12;0.60;;;0.60;;
28437;SDS011;15667;52.376;9.708;2023-04-24T14:07:49;2.45;;;0.90;;
28437;SDS011;15667;52.376;9.708;2023-04-24T14:10:15;0.88;;;0.70;;
28437;SDS011;15667;52.376;9.708;2023-04-24T14:12:41;0.85;;;0.80;;
28437;SDS011;15667;52.376;9.708;2023-04-24T14:15:07;1.20;;;1.10;;
28437;SDS011;15667;52.376;9.708;2023-04-24T14:17:33;2.53;;;1.40;;
28437;SDS011;15667;52.376;9.708;2023-04-24T14:19:59;2.58;;;1.52;;
28437;SDS011;15667;52.376;9.708;2023-04-24T14:22:25;2.67;;;1.67;;
28437;SDS011;15667;52.376;9.708;2023-04-24T14:24:51;2.17;;;1.70;;
28437;SDS011;15667;52.376;9.708;2023-04-24T14:27:17;3.75;;;2.13;;
28437;SDS011;15667;52.376;9.708;2023-04-24T14:29:42;4.68;;;2.05;;
28437;SDS011;15667;52.376;9.708;2023-04-24T14:32:10;4.93;;;2.45;;
28437;SDS011;15667;52.376;9.708;2023-04-24T14:37:22;5.07;;;2.45;;
28437;SDS011;15667;52.376;9.708;2023-04-24T14:40:19;7.65;;;3.13;;
28437;SDS011;15667;52.376;9.708;2023-04-24T14:42:54;5.35;;;2.78;;
28437;SDS011;15667;52.376;9.708;2023-04-24T14:45:24;3.53;;;2.70;;
28437;SDS011;15667;52.376;9.708;2023-04-24T14:47:52;4.55;;;2.88;;
28437;SDS011;15667;52.376;9.708;2023-04-24T14:50:19;5.07;;;3.20;;
28437;SDS011;15667;52.376;9.708;2023-04-24T14:52:45;10.10;;;3.80;;
28437;SDS011;15667;52.376;9.708;2023-04-24T14:58:32;9.52;;;3.45;;
28437;SDS011;15667;52.376;9.708;2023-04-24T15:00:58;7.72;;;3.95;;
28437;SDS011;15667;52.376;9.708;2023-04-24T15:03:23;17.48;;;4.78;;
28437;SDS011;15667;52.376;9.708;2023-04-24T15:05:51;13.85;;;4.50;;
28437;SDS011;15667;52.376;9.708;2023-04-24T19:14:18;5.82;;;2.72;;
28437;SDS011;15667;52.376;9.708;2023-04-24T19:16:46;6.47;;;2.75;;
28437;SDS011;15667;52.376;9.708;2023-04-24T19:19:12;9.88;;;2.80;;
28437;SDS011;15667;52.376;9.708;2023-04-24T19:21:38;11.05;;;3.00;;
28437;SDS011;15667;52.376;9.708;2023-04-24T19:24:03;9.10;;;3.17;;
28437;SDS011;15667;52.376;9.708;2023-04-24T19:26:29;6.90;;;2.80;;
28437;SDS011;15667;52.376;9.708;2023-04-24T19:28:55;7.63;;;3.08;;
28437;SDS011;15667;52.376;9.708;2023-04-24T19:31:23;7.35;;;2.70;;
28437;SDS011;15667;52.376;9.708;2023-04-24T19:33:49;7.65;;;2.88;;
28437;SDS011;15667;52.376;9.708;2023-04-24T19:36:15;7.28;;;2.97;;
28437;SDS011;15667;52.376;9.708;2023-04-24T19:38:44;7.88;;;2.97;;
28437;SDS011;15667;52.376;9.708;2023-04-24T19:41:10;6.97;;;2.90;;